Irvington on Hudson, New York
Current Conditions -  °F | °C
As of 11:56 AM on Thursday 18 Dec 2014 (Local Time) from KHPN Reporting Station
Broken Clouds Broken Clouds  
Wind Chill: 30°   Ceiling: 3700
Heat Index: 39°   Visibility: 10mi
Dew Point: 23°   Wind: 18mph
Humidity: 53%   Direction: 290°WNW
Pressure: 29.92"   Gusts: 26mph
Location:  41.0402°N, 73.8532°W
Report Text: KHPN 181656Z 29016G23KT 10SM BKN037 04/M05 A2992 RMK AO2 SLP137 T00391050
Loading
Personal Weather Stations






























Interactive Weather Map New forecast layout! Learn more

10-Day Weather Forecast

Advertisements
Track Severe Weather on mobile